sensor_id;sensor_type;location;lat;lon;timestamp;P1;durP1;ratioP1;P2;durP2;ratioP2
71715;SDS011;59568;52.128;5.434;2023-05-15T00:01:52;10.55;;;5.80;;
71715;SDS011;59568;52.128;5.434;2023-05-15T00:04:19;12.73;;;6.30;;
71715;SDS011;59568;52.128;5.434;2023-05-15T00:06:45;10.63;;;5.80;;
71715;SDS011;59568;52.128;5.434;2023-05-15T00:09:12;10.17;;;5.50;;
71715;SDS011;59568;52.128;5.434;2023-05-15T00:11:38;11.55;;;6.45;;
71715;SDS011;59568;52.128;5.434;2023-05-15T00:14:05;13.73;;;6.72;;
71715;SDS011;59568;52.128;5.434;2023-05-15T00:16:31;13.23;;;7.53;;
71715;SDS011;59568;52.128;5.434;2023-05-15T00:18:58;13.15;;;7.38;;
71715;SDS011;59568;52.128;5.434;2023-05-15T00:21:25;13.37;;;7.20;;
71715;SDS011;59568;52.128;5.434;2023-05-15T00:23:51;11.98;;;6.80;;
71715;SDS011;59568;52.128;5.434;2023-05-15T00:26:19;15.70;;;6.28;;
71715;SDS011;59568;52.128;5.434;2023-05-15T00:28:45;12.25;;;6.03;;
71715;SDS011;59568;52.128;5.434;2023-05-15T00:31:12;11.88;;;7.55;;
71715;SDS011;59568;52.128;5.434;2023-05-15T00:33:40;13.00;;;6.83;;
71715;SDS011;59568;52.128;5.434;2023-05-15T00:36:06;13.07;;;6.65;;
71715;SDS011;59568;52.128;5.434;2023-05-15T00:38:33;15.82;;;7.68;;
71715;SDS011;59568;52.128;5.434;2023-05-15T00:41:00;13.82;;;6.90;;
71715;SDS011;59568;52.128;5.434;2023-05-15T00:43:27;13.13;;;6.78;;
71715;SDS011;59568;52.128;5.434;2023-05-15T00:45:54;12.83;;;7.00;;
71715;SDS011;59568;52.128;5.434;2023-05-15T00:48:20;14.55;;;7.57;;
71715;SDS011;59568;52.128;5.434;2023-05-15T00:50:50;12.10;;;7.10;;
71715;SDS011;59568;52.128;5.434;2023-05-15T00:53:17;15.38;;;7.60;;
71715;SDS011;59568;52.128;5.434;2023-05-15T00:55:46;14.43;;;7.80;;
71715;SDS011;59568;52.128;5.434;2023-05-15T00:58:14;11.47;;;6.50;;
71715;SDS011;59568;52.128;5.434;2023-05-15T01:00:43;13.05;;;6.72;;
71715;SDS011;59568;52.128;5.434;2023-05-15T01:03:10;12.25;;;6.93;;
71715;SDS011;59568;52.128;5.434;2023-05-15T01:05:37;14.60;;;7.60;;
71715;SDS011;59568;52.128;5.434;2023-05-15T01:10:30;13.17;;;6.90;;
71715;SDS011;59568;52.128;5.434;2023-05-15T01:12:59;15.13;;;7.78;;
71715;SDS011;59568;52.128;5.434;2023-05-15T01:15:28;13.63;;;7.45;;
71715;SDS011;59568;52.128;5.434;2023-05-15T01:17:54;14.23;;;6.95;;
71715;SDS011;59568;52.128;5.434;2023-05-15T01:20:21;12.85;;;6.32;;
71715;SDS011;59568;52.128;5.434;2023-05-15T01:25:36;14.05;;;6.88;;
71715;SDS011;59568;52.128;5.434;2023-05-15T01:28:21;16.05;;;7.35;;
71715;SDS011;59568;52.128;5.434;2023-05-15T01:30:55;13.00;;;6.95;;
71715;SDS011;59568;52.128;5.434;2023-05-15T01:33:32;13.27;;;7.00;;
71715;SDS011;59568;52.128;5.434;2023-05-15T01:36:15;14.47;;;7.53;;
71715;SDS011;59568;52.128;5.434;2023-05-15T01:38:51;14.07;;;6.82;;
71715;SDS011;59568;52.128;5.434;2023-05-15T01:43:59;13.85;;;6.63;;
71715;SDS011;59568;52.128;5.434;2023-05-15T01:46:30;14.25;;;7.55;;
71715;SDS011;59568;52.128;5.434;2023-05-15T01:49:02;17.80;;;8.03;;
71715;SDS011;59568;52.128;5.434;2023-05-15T01:51:29;14.45;;;7.20;;
71715;SDS011;59568;52.128;5.434;2023-05-15T01:53:57;13.20;;;7.28;;
71715;SDS011;59568;52.128;5.434;2023-05-15T01:56:24;15.88;;;7.32;;
71715;SDS011;59568;52.128;5.434;2023-05-15T01:58:52;15.20;;;7.25;;
71715;SDS011;59568;52.128;5.434;2023-05-15T02:01:20;17.87;;;7.73;;
71715;SDS011;59568;52.128;5.434;2023-05-15T02:03:49;17.70;;;8.52;;
71715;SDS011;59568;52.128;5.434;2023-05-15T02:06:16;18.73;;;8.88;;
71715;SDS011;59568;52.128;5.434;2023-05-15T02:08:44;18.38;;;8.70;;
71715;SDS011;59568;52.128;5.434;2023-05-15T02:11:12;19.98;;;8.85;;
71715;SDS011;59568;52.128;5.434;2023-05-15T02:13:39;20.07;;;8.87;;
71715;SDS011;59568;52.128;5.434;2023-05-15T02:16:07;22.27;;;9.10;;
71715;SDS011;59568;52.128;5.434;2023-05-15T02:18:33;20.48;;;9.32;;
71715;SDS011;59568;52.128;5.434;2023-05-15T02:21:00;26.38;;;10.55;;
71715;SDS011;59568;52.128;5.434;2023-05-15T02:23:28;21.10;;;9.55;;
71715;SDS011;59568;52.128;5.434;2023-05-15T02:26:13;27.87;;;10.70;;
71715;SDS011;59568;52.128;5.434;2023-05-15T02:34:33;23.05;;;10.27;;
71715;SDS011;59568;52.128;5.434;2023-05-15T02:37:09;25.30;;;10.48;;
71715;SDS011;59568;52.128;5.434;2023-05-15T02:39:40;28.87;;;10.23;;
71715;SDS011;59568;52.128;5.434;2023-05-15T02:42:08;23.15;;;10.27;;
71715;SDS011;59568;52.128;5.434;2023-05-15T02:44:36;23.85;;;10.75;;
71715;SDS011;59568;52.128;5.434;2023-05-15T02:47:06;23.83;;;10.90;;
71715;SDS011;59568;52.128;5.434;2023-05-15T02:49:33;26.02;;;10.40;;
71715;SDS011;59568;52.128;5.434;2023-05-15T02:52:00;21.27;;;10.07;;
71715;SDS011;59568;52.128;5.434;2023-05-15T02:54:27;30.17;;;11.90;;
71715;SDS011;59568;52.128;5.434;2023-05-15T02:56:55;28.40;;;11.15;;
71715;SDS011;59568;52.128;5.434;2023-05-15T02:59:21;23.63;;;10.88;;
71715;SDS011;59568;52.128;5.434;2023-05-15T03:01:48;23.58;;;11.68;;
71715;SDS011;59568;52.128;5.434;2023-05-15T03:04:14;24.30;;;11.03;;
71715;SDS011;59568;52.128;5.434;2023-05-15T03:06:42;26.35;;;11.13;;
71715;SDS011;59568;52.128;5.434;2023-05-15T03:09:08;26.45;;;11.07;;
71715;SDS011;59568;52.128;5.434;2023-05-15T03:11:35;23.90;;;10.98;;
71715;SDS011;59568;52.128;5.434;2023-05-15T03:14:01;24.80;;;10.60;;
71715;SDS011;59568;52.128;5.434;2023-05-15T03:16:28;23.03;;;9.90;;
71715;SDS011;59568;52.128;5.434;2023-05-15T03:18:54;21.80;;;10.48;;
71715;SDS011;59568;52.128;5.434;2023-05-15T03:21:21;25.13;;;11.93;;
71715;SDS011;59568;52.128;5.434;2023-05-15T03:23:47;26.20;;;11.35;;
71715;SDS011;59568;52.128;5.434;2023-05-15T03:26:14;24.25;;;11.40;;
71715;SDS011;59568;52.128;5.434;2023-05-15T03:28:40;24.07;;;10.77;;
71715;SDS011;59568;52.128;5.434;2023-05-15T03:31:07;31.00;;;13.15;;
71715;SDS011;59568;52.128;5.434;2023-05-15T03:33:34;26.10;;;12.48;;
71715;SDS011;59568;52.128;5.434;2023-05-15T03:36:00;28.90;;;13.60;;
71715;SDS011;59568;52.128;5.434;2023-05-15T03:38:27;27.08;;;12.63;;
71715;SDS011;59568;52.128;5.434;2023-05-15T03:40:53;29.87;;;12.67;;
71715;SDS011;59568;52.128;5.434;2023-05-15T03:43:20;22.67;;;11.48;;
71715;SDS011;59568;52.128;5.434;2023-05-15T03:45:46;30.85;;;12.70;;
71715;SDS011;59568;52.128;5.434;2023-05-15T03:48:13;24.92;;;12.13;;
71715;SDS011;59568;52.128;5.434;2023-05-15T03:50:39;33.50;;;13.68;;
71715;SDS011;59568;52.128;5.434;2023-05-15T03:53:06;22.77;;;11.30;;
71715;SDS011;59568;52.128;5.434;2023-05-15T03:55:32;24.05;;;12.40;;
71715;SDS011;59568;52.128;5.434;2023-05-15T03:58:01;26.42;;;12.38;;
71715;SDS011;59568;52.128;5.434;2023-05-15T04:00:27;27.15;;;11.90;;
71715;SDS011;59568;52.128;5.434;2023-05-15T04:02:54;24.90;;;12.35;;
71715;SDS011;59568;52.128;5.434;2023-05-15T04:05:21;20.87;;;11.23;;
71715;SDS011;59568;52.128;5.434;2023-05-15T04:07:48;25.13;;;12.27;;
71715;SDS011;59568;52.128;5.434;2023-05-15T04:10:14;24.52;;;11.63;;
71715;SDS011;59568;52.128;5.434;2023-05-15T04:12:41;24.42;;;12.32;;
71715;SDS011;59568;52.128;5.434;2023-05-15T04:15:18;23.50;;;10.75;;
71715;SDS011;59568;52.128;5.434;2023-05-15T04:17:45;22.90;;;11.33;;
71715;SDS011;59568;52.128;5.434;2023-05-15T04:20:12;22.92;;;11.43;;
71715;SDS011;59568;52.128;5.434;2023-05-15T04:22:40;21.55;;;11.63;;
71715;SDS011;59568;52.128;5.434;2023-05-15T04:25:07;22.77;;;11.27;;
71715;SDS011;59568;52.128;5.434;2023-05-15T04:27:36;21.10;;;10.98;;
71715;SDS011;59568;52.128;5.434;2023-05-15T04:30:04;20.93;;;10.97;;
71715;SDS011;59568;52.128;5.434;2023-05-15T04:32:31;22.73;;;12.13;;
71715;SDS011;59568;52.128;5.434;2023-05-15T04:35:01;21.33;;;10.88;;
71715;SDS011;59568;52.128;5.434;2023-05-15T04:37:31;19.02;;;10.27;;
71715;SDS011;59568;52.128;5.434;2023-05-15T04:39:58;17.77;;;9.95;;
71715;SDS011;59568;52.128;5.434;2023-05-15T04:42:24;22.03;;;10.60;;
71715;SDS011;59568;52.128;5.434;2023-05-15T04:44:52;18.67;;;10.05;;
71715;SDS011;59568;52.128;5.434;2023-05-15T04:47:18;21.77;;;11.63;;
71715;SDS011;59568;52.128;5.434;2023-05-15T04:49:45;19.08;;;9.93;;
71715;SDS011;59568;52.128;5.434;2023-05-15T04:52:13;20.25;;;10.40;;
71715;SDS011;59568;52.128;5.434;2023-05-15T04:54:39;19.30;;;9.70;;
71715;SDS011;59568;52.128;5.434;2023-05-15T04:57:07;18.92;;;10.15;;
71715;SDS011;59568;52.128;5.434;2023-05-15T04:59:34;20.02;;;11.00;;
71715;SDS011;59568;52.128;5.434;2023-05-15T05:02:01;21.48;;;11.68;;
71715;SDS011;59568;52.128;5.434;2023-05-15T05:04:28;22.05;;;10.82;;
71715;SDS011;59568;52.128;5.434;2023-05-15T05:06:54;22.03;;;11.27;;
71715;SDS011;59568;52.128;5.434;2023-05-15T05:09:21;21.67;;;11.23;;
71715;SDS011;59568;52.128;5.434;2023-05-15T05:11:47;18.15;;;10.25;;
71715;SDS011;59568;52.128;5.434;2023-05-15T05:14:14;21.92;;;10.65;;
71715;SDS011;59568;52.128;5.434;2023-05-15T05:16:43;21.60;;;10.20;;
71715;SDS011;59568;52.128;5.434;2023-05-15T05:19:10;23.33;;;11.57;;
71715;SDS011;59568;52.128;5.434;2023-05-15T05:21:37;21.75;;;11.77;;
71715;SDS011;59568;52.128;5.434;2023-05-15T05:24:03;21.45;;;11.27;;
71715;SDS011;59568;52.128;5.434;2023-05-15T05:26:30;20.30;;;11.73;;
71715;SDS011;59568;52.128;5.434;2023-05-15T05:28:57;21.20;;;11.95;;
71715;SDS011;59568;52.128;5.434;2023-05-15T05:31:23;21.33;;;11.07;;
71715;SDS011;59568;52.128;5.434;2023-05-15T05:33:50;21.60;;;10.90;;
71715;SDS011;59568;52.128;5.434;2023-05-15T05:36:17;18.92;;;10.52;;
71715;SDS011;59568;52.128;5.434;2023-05-15T05:38:44;16.65;;;10.10;;
71715;SDS011;59568;52.128;5.434;2023-05-15T05:41:10;20.30;;;11.00;;
71715;SDS011;59568;52.128;5.434;2023-05-15T05:43:37;19.10;;;11.10;;
71715;SDS011;59568;52.128;5.434;2023-05-15T05:46:03;18.42;;;10.18;;
71715;SDS011;59568;52.128;5.434;2023-05-15T05:48:30;19.42;;;10.43;;
71715;SDS011;59568;52.128;5.434;2023-05-15T05:50:57;16.75;;;10.15;;
71715;SDS011;59568;52.128;5.434;2023-05-15T05:53:23;17.30;;;9.68;;
71715;SDS011;59568;52.128;5.434;2023-05-15T05:55:50;16.13;;;9.83;;
71715;SDS011;59568;52.128;5.434;2023-05-15T05:58:16;17.05;;;9.70;;
71715;SDS011;59568;52.128;5.434;2023-05-15T06:00:49;16.40;;;9.48;;
71715;SDS011;59568;52.128;5.434;2023-05-15T06:03:16;15.98;;;9.10;;
71715;SDS011;59568;52.128;5.434;2023-05-15T06:05:42;13.88;;;9.55;;
71715;SDS011;59568;52.128;5.434;2023-05-15T06:08:09;16.23;;;10.27;;
71715;SDS011;59568;52.128;5.434;2023-05-15T06:10:36;16.10;;;9.75;;
71715;SDS011;59568;52.128;5.434;2023-05-15T06:13:03;13.02;;;8.90;;
71715;SDS011;59568;52.128;5.434;2023-05-15T06:15:29;16.65;;;10.93;;
71715;SDS011;59568;52.128;5.434;2023-05-15T06:17:56;13.43;;;10.15;;
71715;SDS011;59568;52.128;5.434;2023-05-15T06:20:22;14.63;;;10.20;;
71715;SDS011;59568;52.128;5.434;2023-05-15T06:22:49;14.68;;;9.77;;
71715;SDS011;59568;52.128;5.434;2023-05-15T06:25:16;12.82;;;9.18;;
71715;SDS011;59568;52.128;5.434;2023-05-15T06:27:43;16.92;;;10.75;;
71715;SDS011;59568;52.128;5.434;2023-05-15T06:30:10;14.55;;;10.57;;
71715;SDS011;59568;52.128;5.434;2023-05-15T06:32:38;14.20;;;10.77;;
71715;SDS011;59568;52.128;5.434;2023-05-15T06:35:05;15.05;;;11.18;;
71715;SDS011;59568;52.128;5.434;2023-05-15T06:37:32;15.32;;;10.48;;
71715;SDS011;59568;52.128;5.434;2023-05-15T06:39:59;15.70;;;11.68;;
71715;SDS011;59568;52.128;5.434;2023-05-15T06:42:26;16.00;;;11.48;;
71715;SDS011;59568;52.128;5.434;2023-05-15T06:44:52;15.20;;;10.97;;
71715;SDS011;59568;52.128;5.434;2023-05-15T06:47:19;14.55;;;11.05;;
71715;SDS011;59568;52.128;5.434;2023-05-15T06:49:45;15.73;;;11.10;;
71715;SDS011;59568;52.128;5.434;2023-05-15T06:52:12;15.38;;;10.88;;
71715;SDS011;59568;52.128;5.434;2023-05-15T06:54:39;13.90;;;11.18;;
71715;SDS011;59568;52.128;5.434;2023-05-15T06:57:08;13.93;;;10.43;;
71715;SDS011;59568;52.128;5.434;2023-05-15T06:59:35;13.15;;;9.90;;
71715;SDS011;59568;52.128;5.434;2023-05-15T07:02:02;12.55;;;10.45;;
71715;SDS011;59568;52.128;5.434;2023-05-15T07:04:29;14.25;;;9.43;;
71715;SDS011;59568;52.128;5.434;2023-05-15T07:06:56;13.63;;;9.48;;
71715;SDS011;59568;52.128;5.434;2023-05-15T07:09:23;17.07;;;9.47;;
71715;SDS011;59568;52.128;5.434;2023-05-15T07:11:50;14.23;;;9.75;;
71715;SDS011;59568;52.128;5.434;2023-05-15T07:14:16;12.55;;;10.50;;
71715;SDS011;59568;52.128;5.434;2023-05-15T07:16:43;12.18;;;9.70;;
71715;SDS011;59568;52.128;5.434;2023-05-15T07:19:12;12.40;;;9.52;;
71715;SDS011;59568;52.128;5.434;2023-05-15T07:21:39;12.87;;;9.47;;
71715;SDS011;59568;52.128;5.434;2023-05-15T07:24:05;14.18;;;9.50;;
71715;SDS011;59568;52.128;5.434;2023-05-15T07:26:32;13.68;;;9.20;;
71715;SDS011;59568;52.128;5.434;2023-05-15T07:29:08;11.90;;;9.95;;
71715;SDS011;59568;52.128;5.434;2023-05-15T07:31:37;14.35;;;9.75;;
71715;SDS011;59568;52.128;5.434;2023-05-15T07:34:05;11.57;;;8.27;;
71715;SDS011;59568;52.128;5.434;2023-05-15T07:36:32;12.07;;;8.90;;
71715;SDS011;59568;52.128;5.434;2023-05-15T07:38:58;11.10;;;9.40;;
71715;SDS011;59568;52.128;5.434;2023-05-15T07:41:25;14.20;;;9.60;;
71715;SDS011;59568;52.128;5.434;2023-05-15T07:43:51;11.50;;;8.82;;
71715;SDS011;59568;52.128;5.434;2023-05-15T07:46:18;12.63;;;9.50;;
71715;SDS011;59568;52.128;5.434;2023-05-15T07:48:44;11.63;;;9.10;;
71715;SDS011;59568;52.128;5.434;2023-05-15T07:51:11;14.30;;;9.38;;
71715;SDS011;59568;52.128;5.434;2023-05-15T07:53:38;15.18;;;10.27;;
71715;SDS011;59568;52.128;5.434;2023-05-15T07:56:04;13.80;;;9.90;;
71715;SDS011;59568;52.128;5.434;2023-05-15T07:58:31;13.13;;;9.80;;
71715;SDS011;59568;52.128;5.434;2023-05-15T08:01:00;13.98;;;10.70;;
71715;SDS011;59568;52.128;5.434;2023-05-15T08:03:26;14.30;;;10.32;;
71715;SDS011;59568;52.128;5.434;2023-05-15T08:05:53;13.38;;;10.02;;
71715;SDS011;59568;52.128;5.434;2023-05-15T08:08:20;17.40;;;10.40;;
71715;SDS011;59568;52.128;5.434;2023-05-15T08:10:47;14.60;;;10.37;;
71715;SDS011;59568;52.128;5.434;2023-05-15T08:13:13;13.63;;;10.43;;
71715;SDS011;59568;52.128;5.434;2023-05-15T08:15:40;14.55;;;9.73;;
71715;SDS011;59568;52.128;5.434;2023-05-15T08:18:07;13.88;;;10.15;;
71715;SDS011;59568;52.128;5.434;2023-05-15T08:20:35;13.77;;;9.77;;
71715;SDS011;59568;52.128;5.434;2023-05-15T08:23:02;12.03;;;8.87;;
71715;SDS011;59568;52.128;5.434;2023-05-15T08:25:29;12.65;;;8.98;;
71715;SDS011;59568;52.128;5.434;2023-05-15T08:27:56;11.90;;;8.60;;
71715;SDS011;59568;52.128;5.434;2023-05-15T08:30:22;11.90;;;8.65;;
71715;SDS011;59568;52.128;5.434;2023-05-15T08:32:49;14.88;;;8.98;;
71715;SDS011;59568;52.128;5.434;2023-05-15T08:35:16;15.77;;;10.10;;
71715;SDS011;59568;52.128;5.434;2023-05-15T08:37:42;11.10;;;8.93;;
71715;SDS011;59568;52.128;5.434;2023-05-15T08:40:09;11.80;;;9.10;;
71715;SDS011;59568;52.128;5.434;2023-05-15T08:42:37;13.00;;;9.13;;
71715;SDS011;59568;52.128;5.434;2023-05-15T08:45:11;14.82;;;9.55;;
71715;SDS011;59568;52.128;5.434;2023-05-15T08:47:39;11.50;;;7.93;;
71715;SDS011;59568;52.128;5.434;2023-05-15T08:50:11;13.60;;;9.30;;
71715;SDS011;59568;52.128;5.434;2023-05-15T08:52:40;11.77;;;9.38;;
71715;SDS011;59568;52.128;5.434;2023-05-15T08:55:08;11.93;;;8.98;;
71715;SDS011;59568;52.128;5.434;2023-05-15T08:57:38;11.45;;;8.52;;
71715;SDS011;59568;52.128;5.434;2023-05-15T09:00:05;15.87;;;8.87;;
71715;SDS011;59568;52.128;5.434;2023-05-15T09:02:35;15.25;;;9.30;;
71715;SDS011;59568;52.128;5.434;2023-05-15T09:05:03;14.55;;;9.65;;
71715;SDS011;59568;52.128;5.434;2023-05-15T09:07:31;13.73;;;8.02;;
71715;SDS011;59568;52.128;5.434;2023-05-15T09:09:58;13.35;;;9.80;;
71715;SDS011;59568;52.128;5.434;2023-05-15T09:12:27;12.80;;;9.03;;
71715;SDS011;59568;52.128;5.434;2023-05-15T09:15:09;12.98;;;8.32;;
71715;SDS011;59568;52.128;5.434;2023-05-15T09:17:41;13.00;;;9.30;;
71715;SDS011;59568;52.128;5.434;2023-05-15T09:23:01;15.43;;;8.48;;
71715;SDS011;59568;52.128;5.434;2023-05-15T09:25:33;11.10;;;8.67;;
71715;SDS011;59568;52.128;5.434;2023-05-15T09:28:07;13.10;;;8.45;;
71715;SDS011;59568;52.128;5.434;2023-05-15T09:30:36;13.45;;;7.93;;
71715;SDS011;59568;52.128;5.434;2023-05-15T09:33:04;11.48;;;8.48;;
71715;SDS011;59568;52.128;5.434;2023-05-15T09:35:31;13.88;;;9.02;;
71715;SDS011;59568;52.128;5.434;2023-05-15T09:37:58;10.13;;;7.77;;
71715;SDS011;59568;52.128;5.434;2023-05-15T09:40:29;10.95;;;7.88;;
71715;SDS011;59568;52.128;5.434;2023-05-15T09:42:57;13.02;;;8.45;;
71715;SDS011;59568;52.128;5.434;2023-05-15T09:45:24;9.93;;;7.10;;
71715;SDS011;59568;52.128;5.434;2023-05-15T09:47:52;10.02;;;7.63;;
71715;SDS011;59568;52.128;5.434;2023-05-15T09:50:20;12.50;;;8.37;;
71715;SDS011;59568;52.128;5.434;2023-05-15T09:52:48;13.60;;;8.30;;
71715;SDS011;59568;52.128;5.434;2023-05-15T09:55:16;15.40;;;9.98;;
71715;SDS011;59568;52.128;5.434;2023-05-15T09:58:02;13.75;;;9.30;;
71715;SDS011;59568;52.128;5.434;2023-05-15T10:00:32;10.27;;;8.10;;
71715;SDS011;59568;52.128;5.434;2023-05-15T10:03:00;13.00;;;8.77;;
71715;SDS011;59568;52.128;5.434;2023-05-15T10:05:28;14.45;;;9.00;;
71715;SDS011;59568;52.128;5.434;2023-05-15T10:08:09;12.15;;;8.43;;
71715;SDS011;59568;52.128;5.434;2023-05-15T10:10:36;13.82;;;8.93;;
71715;SDS011;59568;52.128;5.434;2023-05-15T10:13:03;16.35;;;10.40;;
71715;SDS011;59568;52.128;5.434;2023-05-15T10:15:32;17.33;;;11.17;;
71715;SDS011;59568;52.128;5.434;2023-05-15T10:17:59;16.65;;;11.27;;
71715;SDS011;59568;52.128;5.434;2023-05-15T10:20:29;15.32;;;11.13;;
71715;SDS011;59568;52.128;5.434;2023-05-15T10:22:57;16.10;;;11.35;;
71715;SDS011;59568;52.128;5.434;2023-05-15T10:28:03;18.00;;;11.53;;
71715;SDS011;59568;52.128;5.434;2023-05-15T10:30:34;18.42;;;13.10;;
71715;SDS011;59568;52.128;5.434;2023-05-15T10:33:03;21.90;;;13.82;;
71715;SDS011;59568;52.128;5.434;2023-05-15T10:35:30;19.30;;;12.95;;
71715;SDS011;59568;52.128;5.434;2023-05-15T10:37:57;21.25;;;14.45;;
71715;SDS011;59568;52.128;5.434;2023-05-15T10:40:25;24.43;;;16.07;;
71715;SDS011;59568;52.128;5.434;2023-05-15T10:42:53;24.13;;;15.25;;
71715;SDS011;59568;52.128;5.434;2023-05-15T10:45:20;26.10;;;16.23;;
71715;SDS011;59568;52.128;5.434;2023-05-15T10:47:47;23.00;;;14.35;;
71715;SDS011;59568;52.128;5.434;2023-05-15T10:50:14;24.40;;;14.77;;
71715;SDS011;59568;52.128;5.434;2023-05-15T10:52:41;25.87;;;15.60;;
71715;SDS011;59568;52.128;5.434;2023-05-15T10:55:12;26.35;;;15.55;;
71715;SDS011;59568;52.128;5.434;2023-05-15T10:57:39;28.27;;;16.67;;
71715;SDS011;59568;52.128;5.434;2023-05-15T11:00:25;28.75;;;17.33;;
71715;SDS011;59568;52.128;5.434;2023-05-15T11:02:53;24.23;;;15.27;;
71715;SDS011;59568;52.128;5.434;2023-05-15T11:05:22;27.77;;;15.53;;
71715;SDS011;59568;52.128;5.434;2023-05-15T11:10:43;24.83;;;14.68;;
71715;SDS011;59568;52.128;5.434;2023-05-15T11:13:10;23.70;;;14.02;;
71715;SDS011;59568;52.128;5.434;2023-05-15T11:15:40;25.58;;;15.48;;
71715;SDS011;59568;52.128;5.434;2023-05-15T11:18:08;24.53;;;14.60;;
71715;SDS011;59568;52.128;5.434;2023-05-15T11:21:04;23.35;;;14.77;;
71715;SDS011;59568;52.128;5.434;2023-05-15T11:23:22;22.88;;;14.07;;
71715;SDS011;59568;52.128;5.434;2023-05-15T11:25:57;24.77;;;14.20;;
71715;SDS011;59568;52.128;5.434;2023-05-15T11:28:24;20.88;;;11.93;;
71715;SDS011;59568;52.128;5.434;2023-05-15T11:30:59;18.67;;;10.87;;
71715;SDS011;59568;52.128;5.434;2023-05-15T11:33:31;23.83;;;12.98;;
71715;SDS011;59568;52.128;5.434;2023-05-15T11:35:58;19.55;;;12.43;;
71715;SDS011;59568;52.128;5.434;2023-05-15T11:38:26;17.45;;;10.75;;
71715;SDS011;59568;52.128;5.434;2023-05-15T11:40:53;17.55;;;11.05;;
71715;SDS011;59568;52.128;5.434;2023-05-15T11:43:28;19.27;;;10.40;;
71715;SDS011;59568;52.128;5.434;2023-05-15T11:46:06;19.95;;;11.50;;
71715;SDS011;59568;52.128;5.434;2023-05-15T11:48:39;17.15;;;10.32;;
71715;SDS011;59568;52.128;5.434;2023-05-15T11:53:50;20.67;;;10.60;;
71715;SDS011;59568;52.128;5.434;2023-05-15T11:56:19;21.50;;;11.40;;
71715;SDS011;59568;52.128;5.434;2023-05-15T11:58:48;18.52;;;10.88;;
71715;SDS011;59568;52.128;5.434;2023-05-15T12:01:15;14.82;;;9.93;;
71715;SDS011;59568;52.128;5.434;2023-05-15T12:03:41;16.90;;;9.88;;
71715;SDS011;59568;52.128;5.434;2023-05-15T12:06:09;13.88;;;9.32;;
71715;SDS011;59568;52.128;5.434;2023-05-15T12:08:36;11.53;;;7.80;;
71715;SDS011;59568;52.128;5.434;2023-05-15T12:11:03;16.85;;;9.20;;
71715;SDS011;59568;52.128;5.434;2023-05-15T12:13:31;14.10;;;9.27;;
71715;SDS011;59568;52.128;5.434;2023-05-15T12:15:58;12.18;;;8.18;;
71715;SDS011;59568;52.128;5.434;2023-05-15T12:18:26;15.82;;;9.35;;
71715;SDS011;59568;52.128;5.434;2023-05-15T12:20:53;13.37;;;8.73;;
71715;SDS011;59568;52.128;5.434;2023-05-15T12:23:20;12.93;;;9.05;;
71715;SDS011;59568;52.128;5.434;2023-05-15T12:25:48;16.27;;;9.50;;
71715;SDS011;59568;52.128;5.434;2023-05-15T12:28:20;14.40;;;8.90;;
71715;SDS011;59568;52.128;5.434;2023-05-15T12:30:47;13.10;;;8.52;;
71715;SDS011;59568;52.128;5.434;2023-05-15T12:33:14;11.20;;;7.80;;
71715;SDS011;59568;52.128;5.434;2023-05-15T12:35:43;13.07;;;8.15;;
71715;SDS011;59568;52.128;5.434;2023-05-15T12:38:14;12.27;;;7.57;;
71715;SDS011;59568;52.128;5.434;2023-05-15T12:40:42;12.77;;;7.90;;
71715;SDS011;59568;52.128;5.434;2023-05-15T12:43:10;11.70;;;7.97;;
71715;SDS011;59568;52.128;5.434;2023-05-15T12:45:37;10.83;;;7.23;;
71715;SDS011;59568;52.128;5.434;2023-05-15T12:48:05;10.73;;;7.65;;
71715;SDS011;59568;52.128;5.434;2023-05-15T12:50:33;11.82;;;7.45;;
71715;SDS011;59568;52.128;5.434;2023-05-15T12:53:04;11.18;;;7.25;;
71715;SDS011;59568;52.128;5.434;2023-05-15T12:55:34;9.40;;;7.00;;
71715;SDS011;59568;52.128;5.434;2023-05-15T12:58:05;11.40;;;6.20;;
71715;SDS011;59568;52.128;5.434;2023-05-15T13:00:33;9.55;;;6.55;;
71715;SDS011;59568;52.128;5.434;2023-05-15T13:03:10;9.50;;;6.10;;
71715;SDS011;59568;52.128;5.434;2023-05-15T13:05:41;8.57;;;5.63;;
71715;SDS011;59568;52.128;5.434;2023-05-15T13:08:12;9.23;;;6.07;;
71715;SDS011;59568;52.128;5.434;2023-05-15T13:10:41;8.03;;;5.50;;
71715;SDS011;59568;52.128;5.434;2023-05-15T13:13:08;7.85;;;5.75;;
71715;SDS011;59568;52.128;5.434;2023-05-15T13:15:38;6.75;;;5.18;;
71715;SDS011;59568;52.128;5.434;2023-05-15T13:20:42;7.10;;;5.25;;
71715;SDS011;59568;52.128;5.434;2023-05-15T13:23:14;7.07;;;5.20;;
71715;SDS011;59568;52.128;5.434;2023-05-15T13:25:43;9.55;;;5.22;;
71715;SDS011;59568;52.128;5.434;2023-05-15T13:28:10;7.25;;;4.93;;
71715;SDS011;59568;52.128;5.434;2023-05-15T13:30:38;8.60;;;6.03;;
71715;SDS011;59568;52.128;5.434;2023-05-15T13:33:07;8.43;;;5.70;;
71715;SDS011;59568;52.128;5.434;2023-05-15T13:35:36;8.47;;;5.33;;
71715;SDS011;59568;52.128;5.434;2023-05-15T13:38:03;8.30;;;5.13;;
71715;SDS011;59568;52.128;5.434;2023-05-15T13:40:29;8.93;;;5.20;;
71715;SDS011;59568;52.128;5.434;2023-05-15T13:42:58;8.15;;;5.22;;
71715;SDS011;59568;52.128;5.434;2023-05-15T13:45:25;8.85;;;5.32;;
71715;SDS011;59568;52.128;5.434;2023-05-15T13:47:52;10.87;;;6.17;;
71715;SDS011;59568;52.128;5.434;2023-05-15T13:50:20;11.13;;;5.65;;
71715;SDS011;59568;52.128;5.434;2023-05-15T13:52:46;9.25;;;6.10;;
71715;SDS011;59568;52.128;5.434;2023-05-15T13:55:13;9.52;;;5.22;;
71715;SDS011;59568;52.128;5.434;2023-05-15T13:57:40;8.27;;;5.20;;
71715;SDS011;59568;52.128;5.434;2023-05-15T14:00:08;6.80;;;4.40;;
71715;SDS011;59568;52.128;5.434;2023-05-15T14:02:39;11.88;;;6.53;;
71715;SDS011;59568;52.128;5.434;2023-05-15T14:05:07;10.38;;;6.78;;
71715;SDS011;59568;52.128;5.434;2023-05-15T14:07:34;10.38;;;6.78;;
71715;SDS011;59568;52.128;5.434;2023-05-15T14:10:01;11.65;;;6.88;;
71715;SDS011;59568;52.128;5.434;2023-05-15T14:12:28;13.57;;;7.27;;
71715;SDS011;59568;52.128;5.434;2023-05-15T14:14:56;10.45;;;6.25;;
71715;SDS011;59568;52.128;5.434;2023-05-15T14:17:23;10.70;;;6.35;;
71715;SDS011;59568;52.128;5.434;2023-05-15T14:19:50;11.20;;;5.78;;
71715;SDS011;59568;52.128;5.434;2023-05-15T14:22:17;10.25;;;5.78;;
71715;SDS011;59568;52.128;5.434;2023-05-15T14:24:44;9.90;;;5.77;;
71715;SDS011;59568;52.128;5.434;2023-05-15T14:27:10;10.85;;;6.05;;
71715;SDS011;59568;52.128;5.434;2023-05-15T14:29:37;9.93;;;5.00;;
71715;SDS011;59568;52.128;5.434;2023-05-15T14:32:05;9.63;;;5.32;;
71715;SDS011;59568;52.128;5.434;2023-05-15T14:34:32;7.70;;;5.10;;
71715;SDS011;59568;52.128;5.434;2023-05-15T14:36:58;8.53;;;4.73;;
71715;SDS011;59568;52.128;5.434;2023-05-15T14:39:25;7.22;;;4.68;;
71715;SDS011;59568;52.128;5.434;2023-05-15T14:41:52;7.53;;;5.20;;
71715;SDS011;59568;52.128;5.434;2023-05-15T14:44:18;8.00;;;4.80;;
71715;SDS011;59568;52.128;5.434;2023-05-15T14:46:45;7.32;;;4.60;;
71715;SDS011;59568;52.128;5.434;2023-05-15T14:49:11;10.60;;;4.50;;
71715;SDS011;59568;52.128;5.434;2023-05-15T14:51:38;7.32;;;4.60;;
71715;SDS011;59568;52.128;5.434;2023-05-15T14:54:05;7.20;;;5.07;;
71715;SDS011;59568;52.128;5.434;2023-05-15T14:56:31;7.13;;;4.85;;
71715;SDS011;59568;52.128;5.434;2023-05-15T14:58:58;9.05;;;5.10;;
71715;SDS011;59568;52.128;5.434;2023-05-15T15:01:25;7.57;;;4.33;;
71715;SDS011;59568;52.128;5.434;2023-05-15T15:03:51;7.85;;;4.40;;